sensor_id;sensor_type;location;lat;lon;timestamp;P1;durP1;ratioP1;P2;durP2;ratioP2
21424;SDS011;10873;51.132;16.848;2024-02-23T00:01:29;6.72;;;4.82;;
21424;SDS011;10873;51.132;16.848;2024-02-23T00:03:55;7.35;;;4.70;;
21424;SDS011;10873;51.132;16.848;2024-02-23T00:06:21;5.30;;;3.95;;
21424;SDS011;10873;51.132;16.848;2024-02-23T00:08:53;5.70;;;3.95;;
21424;SDS011;10873;51.132;16.848;2024-02-23T00:11:20;6.55;;;4.30;;
21424;SDS011;10873;51.132;16.848;2024-02-23T00:13:46;5.75;;;3.75;;
21424;SDS011;10873;51.132;16.848;2024-02-23T00:16:12;4.93;;;3.67;;
21424;SDS011;10873;51.132;16.848;2024-02-23T00:18:38;4.45;;;3.38;;
21424;SDS011;10873;51.132;16.848;2024-02-23T00:21:04;5.53;;;3.42;;
21424;SDS011;10873;51.132;16.848;2024-02-23T00:23:31;4.85;;;3.63;;
21424;SDS011;10873;51.132;16.848;2024-02-23T00:25:57;4.85;;;3.40;;
21424;SDS011;10873;51.132;16.848;2024-02-23T00:28:23;4.45;;;3.20;;
21424;SDS011;10873;51.132;16.848;2024-02-23T00:30:50;5.05;;;3.45;;
21424;SDS011;10873;51.132;16.848;2024-02-23T00:33:16;3.80;;;2.92;;
21424;SDS011;10873;51.132;16.848;2024-02-23T00:35:42;4.30;;;2.95;;
21424;SDS011;10873;51.132;16.848;2024-02-23T00:38:08;4.22;;;2.72;;
21424;SDS011;10873;51.132;16.848;2024-02-23T00:40:34;4.53;;;3.00;;
21424;SDS011;10873;51.132;16.848;2024-02-23T00:43:01;2.97;;;2.40;;
21424;SDS011;10873;51.132;16.848;2024-02-23T00:45:28;3.47;;;2.65;;
21424;SDS011;10873;51.132;16.848;2024-02-23T00:47:54;4.03;;;2.60;;
21424;SDS011;10873;51.132;16.848;2024-02-23T00:50:22;3.03;;;2.35;;
21424;SDS011;10873;51.132;16.848;2024-02-23T00:52:49;3.63;;;2.67;;
21424;SDS011;10873;51.132;16.848;2024-02-23T00:55:16;2.83;;;2.25;;
21424;SDS011;10873;51.132;16.848;2024-02-23T00:57:42;2.80;;;2.50;;
21424;SDS011;10873;51.132;16.848;2024-02-23T01:00:09;3.75;;;2.47;;
21424;SDS011;10873;51.132;16.848;2024-02-23T01:02:36;3.22;;;2.30;;
21424;SDS011;10873;51.132;16.848;2024-02-23T01:05:03;2.90;;;2.42;;
21424;SDS011;10873;51.132;16.848;2024-02-23T01:07:30;3.58;;;2.50;;
21424;SDS011;10873;51.132;16.848;2024-02-23T01:09:56;3.05;;;2.40;;
21424;SDS011;10873;51.132;16.848;2024-02-23T01:12:24;3.67;;;2.40;;
21424;SDS011;10873;51.132;16.848;2024-02-23T01:14:50;3.38;;;2.35;;
21424;SDS011;10873;51.132;16.848;2024-02-23T01:17:16;3.05;;;2.10;;
21424;SDS011;10873;51.132;16.848;2024-02-23T01:19:43;3.75;;;2.47;;
21424;SDS011;10873;51.132;16.848;2024-02-23T01:22:10;2.75;;;2.00;;
21424;SDS011;10873;51.132;16.848;2024-02-23T01:24:36;3.40;;;2.30;;
21424;SDS011;10873;51.132;16.848;2024-02-23T01:27:02;3.67;;;2.17;;
21424;SDS011;10873;51.132;16.848;2024-02-23T01:29:29;2.85;;;2.00;;
21424;SDS011;10873;51.132;16.848;2024-02-23T01:31:55;2.67;;;2.00;;
21424;SDS011;10873;51.132;16.848;2024-02-23T01:34:21;2.40;;;2.05;;
21424;SDS011;10873;51.132;16.848;2024-02-23T01:36:48;2.42;;;1.85;;
21424;SDS011;10873;51.132;16.848;2024-02-23T01:39:14;2.38;;;1.90;;
21424;SDS011;10873;51.132;16.848;2024-02-23T01:41:40;2.67;;;1.65;;
21424;SDS011;10873;51.132;16.848;2024-02-23T01:44:07;3.10;;;1.70;;
21424;SDS011;10873;51.132;16.848;2024-02-23T01:46:33;2.03;;;1.70;;
21424;SDS011;10873;51.132;16.848;2024-02-23T01:49:00;2.22;;;1.80;;
21424;SDS011;10873;51.132;16.848;2024-02-23T01:51:27;2.20;;;1.50;;
21424;SDS011;10873;51.132;16.848;2024-02-23T01:53:53;2.22;;;1.52;;
21424;SDS011;10873;51.132;16.848;2024-02-23T01:56:19;1.85;;;1.60;;
21424;SDS011;10873;51.132;16.848;2024-02-23T01:58:46;3.33;;;1.75;;
21424;SDS011;10873;51.132;16.848;2024-02-23T02:01:12;2.10;;;1.70;;
21424;SDS011;10873;51.132;16.848;2024-02-23T02:03:38;2.00;;;1.55;;
21424;SDS011;10873;51.132;16.848;2024-02-23T02:06:05;2.10;;;1.60;;
21424;SDS011;10873;51.132;16.848;2024-02-23T02:08:32;1.77;;;1.42;;
21424;SDS011;10873;51.132;16.848;2024-02-23T02:11:00;1.73;;;1.33;;
21424;SDS011;10873;51.132;16.848;2024-02-23T02:13:27;2.10;;;1.60;;
21424;SDS011;10873;51.132;16.848;2024-02-23T02:15:54;2.30;;;1.60;;
21424;SDS011;10873;51.132;16.848;2024-02-23T02:18:20;1.52;;;1.42;;
21424;SDS011;10873;51.132;16.848;2024-02-23T02:20:49;1.90;;;1.48;;
21424;SDS011;10873;51.132;16.848;2024-02-23T02:23:17;2.25;;;1.40;;
21424;SDS011;10873;51.132;16.848;2024-02-23T02:25:44;2.25;;;1.50;;
21424;SDS011;10873;51.132;16.848;2024-02-23T02:28:10;4.88;;;1.40;;
21424;SDS011;10873;51.132;16.848;2024-02-23T02:30:37;1.67;;;1.17;;
21424;SDS011;10873;51.132;16.848;2024-02-23T02:33:03;1.60;;;1.30;;
21424;SDS011;10873;51.132;16.848;2024-02-23T02:35:29;1.55;;;1.38;;
21424;SDS011;10873;51.132;16.848;2024-02-23T02:37:55;1.92;;;1.38;;
21424;SDS011;10873;51.132;16.848;2024-02-23T02:40:21;1.88;;;1.45;;
21424;SDS011;10873;51.132;16.848;2024-02-23T02:42:48;2.28;;;1.38;;
21424;SDS011;10873;51.132;16.848;2024-02-23T02:45:14;1.65;;;1.52;;
21424;SDS011;10873;51.132;16.848;2024-02-23T02:47:40;1.85;;;1.48;;
21424;SDS011;10873;51.132;16.848;2024-02-23T02:50:07;1.45;;;1.35;;
21424;SDS011;10873;51.132;16.848;2024-02-23T02:52:34;2.28;;;1.60;;
21424;SDS011;10873;51.132;16.848;2024-02-23T02:55:00;2.13;;;1.70;;
21424;SDS011;10873;51.132;16.848;2024-02-23T02:57:26;3.67;;;1.50;;
21424;SDS011;10873;51.132;16.848;2024-02-23T02:59:53;2.10;;;1.50;;
21424;SDS011;10873;51.132;16.848;2024-02-23T03:02:19;1.60;;;1.50;;
21424;SDS011;10873;51.132;16.848;2024-02-23T03:04:48;1.80;;;1.60;;
21424;SDS011;10873;51.132;16.848;2024-02-23T03:07:15;2.25;;;1.60;;
21424;SDS011;10873;51.132;16.848;2024-02-23T03:09:42;2.40;;;1.60;;
21424;SDS011;10873;51.132;16.848;2024-02-23T03:12:08;1.33;;;1.23;;
21424;SDS011;10873;51.132;16.848;2024-02-23T03:14:35;1.83;;;1.20;;
21424;SDS011;10873;51.132;16.848;2024-02-23T03:17:06;2.20;;;1.60;;
21424;SDS011;10873;51.132;16.848;2024-02-23T03:19:32;2.05;;;1.55;;
21424;SDS011;10873;51.132;16.848;2024-02-23T03:21:58;1.60;;;1.50;;
21424;SDS011;10873;51.132;16.848;2024-02-23T03:24:25;2.05;;;1.48;;
21424;SDS011;10873;51.132;16.848;2024-02-23T03:26:51;1.50;;;1.35;;
21424;SDS011;10873;51.132;16.848;2024-02-23T03:29:17;2.03;;;1.42;;
21424;SDS011;10873;51.132;16.848;2024-02-23T03:31:43;1.83;;;1.52;;
21424;SDS011;10873;51.132;16.848;2024-02-23T03:34:10;1.83;;;1.60;;
21424;SDS011;10873;51.132;16.848;2024-02-23T03:36:36;2.22;;;1.67;;
21424;SDS011;10873;51.132;16.848;2024-02-23T03:39:02;1.85;;;1.55;;
21424;SDS011;10873;51.132;16.848;2024-02-23T03:41:28;2.75;;;1.73;;
21424;SDS011;10873;51.132;16.848;2024-02-23T03:43:54;2.40;;;1.60;;
21424;SDS011;10873;51.132;16.848;2024-02-23T03:46:20;2.20;;;1.58;;
21424;SDS011;10873;51.132;16.848;2024-02-23T03:48:47;2.50;;;1.80;;
21424;SDS011;10873;51.132;16.848;2024-02-23T03:51:14;2.50;;;1.70;;
21424;SDS011;10873;51.132;16.848;2024-02-23T03:53:41;2.40;;;1.90;;
21424;SDS011;10873;51.132;16.848;2024-02-23T03:56:07;1.73;;;1.63;;
21424;SDS011;10873;51.132;16.848;2024-02-23T03:58:34;1.85;;;1.65;;
21424;SDS011;10873;51.132;16.848;2024-02-23T04:00:59;2.47;;;1.67;;
21424;SDS011;10873;51.132;16.848;2024-02-23T04:03:26;2.00;;;1.80;;
21424;SDS011;10873;51.132;16.848;2024-02-23T04:05:52;2.13;;;1.70;;
21424;SDS011;10873;51.132;16.848;2024-02-23T04:08:19;1.65;;;1.50;;
21424;SDS011;10873;51.132;16.848;2024-02-23T04:10:44;1.90;;;1.70;;
21424;SDS011;10873;51.132;16.848;2024-02-23T04:13:11;1.70;;;1.42;;
21424;SDS011;10873;51.132;16.848;2024-02-23T04:15:39;1.88;;;1.73;;
21424;SDS011;10873;51.132;16.848;2024-02-23T04:18:05;1.65;;;1.48;;
21424;SDS011;10873;51.132;16.848;2024-02-23T04:20:31;1.45;;;1.35;;
21424;SDS011;10873;51.132;16.848;2024-02-23T04:22:58;2.22;;;1.50;;
21424;SDS011;10873;51.132;16.848;2024-02-23T04:25:25;2.67;;;1.50;;
21424;SDS011;10873;51.132;16.848;2024-02-23T04:27:51;1.35;;;1.25;;
21424;SDS011;10873;51.132;16.848;2024-02-23T04:30:17;2.03;;;1.50;;
21424;SDS011;10873;51.132;16.848;2024-02-23T04:32:43;1.65;;;1.50;;
21424;SDS011;10873;51.132;16.848;2024-02-23T04:35:09;1.80;;;1.30;;
21424;SDS011;10873;51.132;16.848;2024-02-23T04:37:36;3.10;;;1.60;;
21424;SDS011;10873;51.132;16.848;2024-02-23T04:40:02;1.40;;;1.30;;
21424;SDS011;10873;51.132;16.848;2024-02-23T04:42:31;1.73;;;1.50;;
21424;SDS011;10873;51.132;16.848;2024-02-23T04:44:57;1.90;;;1.40;;
21424;SDS011;10873;51.132;16.848;2024-02-23T04:47:24;1.52;;;1.38;;
21424;SDS011;10873;51.132;16.848;2024-02-23T04:49:50;1.83;;;1.40;;
21424;SDS011;10873;51.132;16.848;2024-02-23T04:52:16;1.77;;;1.50;;
21424;SDS011;10873;51.132;16.848;2024-02-23T04:54:42;1.45;;;1.35;;
21424;SDS011;10873;51.132;16.848;2024-02-23T04:57:08;1.52;;;1.40;;
21424;SDS011;10873;51.132;16.848;2024-02-23T04:59:35;1.30;;;1.20;;
21424;SDS011;10873;51.132;16.848;2024-02-23T05:02:01;2.15;;;1.50;;
21424;SDS011;10873;51.132;16.848;2024-02-23T05:04:27;2.05;;;1.50;;
21424;SDS011;10873;51.132;16.848;2024-02-23T05:06:53;2.80;;;1.50;;
21424;SDS011;10873;51.132;16.848;2024-02-23T05:09:19;2.28;;;1.65;;
21424;SDS011;10873;51.132;16.848;2024-02-23T05:11:46;1.60;;;1.48;;
21424;SDS011;10873;51.132;16.848;2024-02-23T05:14:12;1.95;;;1.70;;
21424;SDS011;10873;51.132;16.848;2024-02-23T05:16:40;1.92;;;1.50;;
21424;SDS011;10873;51.132;16.848;2024-02-23T05:19:06;1.70;;;1.42;;
21424;SDS011;10873;51.132;16.848;2024-02-23T05:21:32;1.30;;;1.20;;
21424;SDS011;10873;51.132;16.848;2024-02-23T05:23:58;1.50;;;1.33;;
21424;SDS011;10873;51.132;16.848;2024-02-23T05:26:25;1.88;;;1.58;;
21424;SDS011;10873;51.132;16.848;2024-02-23T05:28:51;2.75;;;1.73;;
21424;SDS011;10873;51.132;16.848;2024-02-23T05:31:18;2.13;;;1.50;;
21424;SDS011;10873;51.132;16.848;2024-02-23T05:33:44;1.50;;;1.40;;
21424;SDS011;10873;51.132;16.848;2024-02-23T05:36:10;1.40;;;1.30;;
21424;SDS011;10873;51.132;16.848;2024-02-23T05:38:36;2.72;;;1.70;;
21424;SDS011;10873;51.132;16.848;2024-02-23T05:41:03;1.98;;;1.52;;
21424;SDS011;10873;51.132;16.848;2024-02-23T05:43:30;1.92;;;1.67;;
21424;SDS011;10873;51.132;16.848;2024-02-23T05:45:56;2.47;;;1.60;;
21424;SDS011;10873;51.132;16.848;2024-02-23T05:48:23;2.35;;;1.65;;
21424;SDS011;10873;51.132;16.848;2024-02-23T05:50:50;1.50;;;1.40;;
21424;SDS011;10873;51.132;16.848;2024-02-23T05:53:16;1.92;;;1.63;;
21424;SDS011;10873;51.132;16.848;2024-02-23T05:55:42;1.70;;;1.50;;
21424;SDS011;10873;51.132;16.848;2024-02-23T05:58:08;1.98;;;1.42;;
21424;SDS011;10873;51.132;16.848;2024-02-23T06:00:35;2.30;;;1.50;;
21424;SDS011;10873;51.132;16.848;2024-02-23T06:03:01;2.45;;;1.75;;
21424;SDS011;10873;51.132;16.848;2024-02-23T06:05:27;2.45;;;1.70;;
21424;SDS011;10873;51.132;16.848;2024-02-23T06:07:53;4.53;;;2.05;;
21424;SDS011;10873;51.132;16.848;2024-02-23T06:10:20;7.22;;;2.22;;
21424;SDS011;10873;51.132;16.848;2024-02-23T06:12:46;9.55;;;3.05;;
21424;SDS011;10873;51.132;16.848;2024-02-23T06:15:12;12.48;;;2.80;;
21424;SDS011;10873;51.132;16.848;2024-02-23T06:17:38;5.55;;;2.28;;
21424;SDS011;10873;51.132;16.848;2024-02-23T06:20:06;5.20;;;2.42;;
21424;SDS011;10873;51.132;16.848;2024-02-23T06:22:33;6.82;;;2.25;;
21424;SDS011;10873;51.132;16.848;2024-02-23T06:25:00;7.25;;;2.08;;
21424;SDS011;10873;51.132;16.848;2024-02-23T06:27:27;3.75;;;1.92;;
21424;SDS011;10873;51.132;16.848;2024-02-23T06:29:53;6.80;;;2.00;;
21424;SDS011;10873;51.132;16.848;2024-02-23T06:32:20;3.20;;;1.80;;
21424;SDS011;10873;51.132;16.848;2024-02-23T06:34:47;4.57;;;2.20;;
21424;SDS011;10873;51.132;16.848;2024-02-23T06:37:13;5.32;;;2.03;;
21424;SDS011;10873;51.132;16.848;2024-02-23T06:39:39;5.85;;;2.20;;
21424;SDS011;10873;51.132;16.848;2024-02-23T06:42:06;5.13;;;2.15;;
21424;SDS011;10873;51.132;16.848;2024-02-23T06:44:32;3.58;;;1.95;;
21424;SDS011;10873;51.132;16.848;2024-02-23T06:46:58;3.20;;;1.58;;
21424;SDS011;10873;51.132;16.848;2024-02-23T06:49:25;3.53;;;1.83;;
21424;SDS011;10873;51.132;16.848;2024-02-23T06:51:50;5.45;;;2.05;;
21424;SDS011;10873;51.132;16.848;2024-02-23T06:54:17;3.88;;;1.90;;
21424;SDS011;10873;51.132;16.848;2024-02-23T06:56:43;4.72;;;2.00;;
21424;SDS011;10873;51.132;16.848;2024-02-23T06:59:10;3.15;;;1.65;;
21424;SDS011;10873;51.132;16.848;2024-02-23T07:01:36;4.38;;;1.90;;
21424;SDS011;10873;51.132;16.848;2024-02-23T07:04:12;4.00;;;1.75;;
21424;SDS011;10873;51.132;16.848;2024-02-23T07:06:39;3.17;;;2.10;;
21424;SDS011;10873;51.132;16.848;2024-02-23T07:09:05;3.22;;;1.75;;
21424;SDS011;10873;51.132;16.848;2024-02-23T07:11:31;4.30;;;2.00;;
21424;SDS011;10873;51.132;16.848;2024-02-23T07:13:57;4.13;;;1.80;;
21424;SDS011;10873;51.132;16.848;2024-02-23T07:16:24;3.67;;;1.75;;
21424;SDS011;10873;51.132;16.848;2024-02-23T07:18:50;6.03;;;1.80;;
21424;SDS011;10873;51.132;16.848;2024-02-23T07:21:17;1.63;;;1.45;;
21424;SDS011;10873;51.132;16.848;2024-02-23T07:23:43;5.28;;;1.60;;
21424;SDS011;10873;51.132;16.848;2024-02-23T07:26:09;3.45;;;1.73;;
21424;SDS011;10873;51.132;16.848;2024-02-23T07:28:35;2.10;;;1.40;;
21424;SDS011;10873;51.132;16.848;2024-02-23T07:31:01;3.40;;;1.65;;
21424;SDS011;10873;51.132;16.848;2024-02-23T07:33:28;3.35;;;1.48;;
21424;SDS011;10873;51.132;16.848;2024-02-23T07:35:54;3.10;;;1.40;;
21424;SDS011;10873;51.132;16.848;2024-02-23T07:38:20;3.53;;;1.85;;
21424;SDS011;10873;51.132;16.848;2024-02-23T07:40:46;2.28;;;1.55;;
21424;SDS011;10873;51.132;16.848;2024-02-23T07:43:13;2.50;;;1.48;;
21424;SDS011;10873;51.132;16.848;2024-02-23T07:45:39;1.90;;;1.50;;
21424;SDS011;10873;51.132;16.848;2024-02-23T07:48:05;3.65;;;1.55;;
21424;SDS011;10873;51.132;16.848;2024-02-23T07:50:32;3.20;;;1.50;;
21424;SDS011;10873;51.132;16.848;2024-02-23T07:52:59;3.50;;;1.60;;
21424;SDS011;10873;51.132;16.848;2024-02-23T07:55:24;3.15;;;1.73;;
21424;SDS011;10873;51.132;16.848;2024-02-23T07:57:51;2.22;;;1.42;;
21424;SDS011;10873;51.132;16.848;2024-02-23T08:00:17;2.10;;;1.40;;
21424;SDS011;10873;51.132;16.848;2024-02-23T08:02:44;2.13;;;1.60;;
21424;SDS011;10873;51.132;16.848;2024-02-23T08:05:10;2.83;;;1.48;;
21424;SDS011;10873;51.132;16.848;2024-02-23T08:07:37;2.78;;;1.50;;
21424;SDS011;10873;51.132;16.848;2024-02-23T08:10:03;3.85;;;1.40;;
21424;SDS011;10873;51.132;16.848;2024-02-23T08:12:30;2.88;;;1.77;;
21424;SDS011;10873;51.132;16.848;2024-02-23T08:14:56;1.95;;;1.40;;
21424;SDS011;10873;51.132;16.848;2024-02-23T08:17:22;2.30;;;1.48;;
21424;SDS011;10873;51.132;16.848;2024-02-23T08:19:48;2.00;;;1.30;;
21424;SDS011;10873;51.132;16.848;2024-02-23T08:22:14;2.58;;;1.55;;
21424;SDS011;10873;51.132;16.848;2024-02-23T08:24:41;3.95;;;1.70;;
21424;SDS011;10873;51.132;16.848;2024-02-23T08:27:07;3.80;;;1.33;;
21424;SDS011;10873;51.132;16.848;2024-02-23T08:29:33;2.33;;;1.60;;
21424;SDS011;10873;51.132;16.848;2024-02-23T08:32:03;3.95;;;1.30;;
21424;SDS011;10873;51.132;16.848;2024-02-23T08:34:29;1.77;;;1.30;;
21424;SDS011;10873;51.132;16.848;2024-02-23T08:36:55;1.80;;;1.15;;
21424;SDS011;10873;51.132;16.848;2024-02-23T08:39:21;3.40;;;1.23;;
21424;SDS011;10873;51.132;16.848;2024-02-23T08:41:49;2.67;;;1.17;;
21424;SDS011;10873;51.132;16.848;2024-02-23T08:44:16;1.90;;;1.10;;
21424;SDS011;10873;51.132;16.848;2024-02-23T08:46:43;1.23;;;0.80;;
21424;SDS011;10873;51.132;16.848;2024-02-23T08:49:08;1.83;;;1.10;;
21424;SDS011;10873;51.132;16.848;2024-02-23T08:51:35;1.67;;;1.13;;
21424;SDS011;10873;51.132;16.848;2024-02-23T08:54:01;2.03;;;0.93;;
21424;SDS011;10873;51.132;16.848;2024-02-23T08:56:30;2.10;;;1.10;;
21424;SDS011;10873;51.132;16.848;2024-02-23T08:58:57;1.25;;;1.00;;
21424;SDS011;10873;51.132;16.848;2024-02-23T09:01:24;1.63;;;0.90;;
21424;SDS011;10873;51.132;16.848;2024-02-23T09:03:50;2.28;;;1.00;;
21424;SDS011;10873;51.132;16.848;2024-02-23T09:06:16;2.80;;;1.00;;
21424;SDS011;10873;51.132;16.848;2024-02-23T09:08:42;1.65;;;0.88;;
21424;SDS011;10873;51.132;16.848;2024-02-23T09:11:09;1.15;;;0.95;;
21424;SDS011;10873;51.132;16.848;2024-02-23T09:13:36;1.70;;;1.10;;
21424;SDS011;10873;51.132;16.848;2024-02-23T09:16:03;1.15;;;0.90;;
21424;SDS011;10873;51.132;16.848;2024-02-23T09:18:30;3.03;;;0.93;;
21424;SDS011;10873;51.132;16.848;2024-02-23T09:20:56;1.90;;;1.10;;
21424;SDS011;10873;51.132;16.848;2024-02-23T09:23:22;0.70;;;0.70;;
21424;SDS011;10873;51.132;16.848;2024-02-23T09:25:48;1.80;;;0.90;;
21424;SDS011;10873;51.132;16.848;2024-02-23T09:28:14;1.80;;;1.10;;
21424;SDS011;10873;51.132;16.848;2024-02-23T09:30:40;3.67;;;1.00;;
21424;SDS011;10873;51.132;16.848;2024-02-23T09:33:07;1.75;;;0.98;;
21424;SDS011;10873;51.132;16.848;2024-02-23T09:35:33;3.80;;;1.15;;
21424;SDS011;10873;51.132;16.848;2024-02-23T09:37:59;2.22;;;0.90;;
21424;SDS011;10873;51.132;16.848;2024-02-23T09:40:26;3.03;;;0.80;;
21424;SDS011;10873;51.132;16.848;2024-02-23T09:42:54;2.20;;;1.10;;
21424;SDS011;10873;51.132;16.848;2024-02-23T09:45:24;1.35;;;0.80;;
21424;SDS011;10873;51.132;16.848;2024-02-23T09:47:55;1.90;;;0.80;;
21424;SDS011;10873;51.132;16.848;2024-02-23T09:50:23;2.60;;;1.02;;
21424;SDS011;10873;51.132;16.848;2024-02-23T09:52:50;1.50;;;0.93;;
21424;SDS011;10873;51.132;16.848;2024-02-23T09:55:17;2.00;;;1.00;;
21424;SDS011;10873;51.132;16.848;2024-02-23T09:57:44;1.63;;;1.00;;
21424;SDS011;10873;51.132;16.848;2024-02-23T10:00:12;4.00;;;1.25;;
21424;SDS011;10873;51.132;16.848;2024-02-23T10:02:40;1.83;;;0.95;;
21424;SDS011;10873;51.132;16.848;2024-02-23T10:05:07;3.20;;;1.10;;
21424;SDS011;10873;51.132;16.848;2024-02-23T10:07:36;1.95;;;1.10;;
21424;SDS011;10873;51.132;16.848;2024-02-23T10:10:02;1.55;;;1.10;;
21424;SDS011;10873;51.132;16.848;2024-02-23T10:12:32;2.85;;;1.05;;
21424;SDS011;10873;51.132;16.848;2024-02-23T10:14:59;2.63;;;1.27;;
21424;SDS011;10873;51.132;16.848;2024-02-23T10:17:25;4.95;;;1.50;;
21424;SDS011;10873;51.132;16.848;2024-02-23T10:19:51;2.60;;;1.10;;
21424;SDS011;10873;51.132;16.848;2024-02-23T10:22:17;1.10;;;1.00;;
21424;SDS011;10873;51.132;16.848;2024-02-23T10:24:44;2.33;;;1.20;;
21424;SDS011;10873;51.132;16.848;2024-02-23T10:27:10;2.88;;;1.08;;
21424;SDS011;10873;51.132;16.848;2024-02-23T10:29:36;1.98;;;1.05;;
21424;SDS011;10873;51.132;16.848;2024-02-23T10:32:02;1.50;;;1.00;;
21424;SDS011;10873;51.132;16.848;2024-02-23T10:34:31;3.80;;;1.10;;
21424;SDS011;10873;51.132;16.848;2024-02-23T10:36:59;5.40;;;1.40;;
21424;SDS011;10873;51.132;16.848;2024-02-23T10:39:25;3.65;;;1.35;;
21424;SDS011;10873;51.132;16.848;2024-02-23T10:41:56;2.92;;;1.00;;
21424;SDS011;10873;51.132;16.848;2024-02-23T10:44:26;2.45;;;1.20;;
21424;SDS011;10873;51.132;16.848;2024-02-23T10:46:53;3.47;;;1.10;;
21424;SDS011;10873;51.132;16.848;2024-02-23T10:49:20;1.77;;;1.00;;
21424;SDS011;10873;51.132;16.848;2024-02-23T10:51:51;3.95;;;1.10;;
21424;SDS011;10873;51.132;16.848;2024-02-23T10:54:18;1.95;;;0.95;;
21424;SDS011;10873;51.132;16.848;2024-02-23T10:56:46;3.95;;;1.13;;
21424;SDS011;10873;51.132;16.848;2024-02-23T10:59:13;1.58;;;1.00;;
21424;SDS011;10873;51.132;16.848;2024-02-23T11:01:43;1.98;;;1.08;;
21424;SDS011;10873;51.132;16.848;2024-02-23T11:04:12;2.88;;;1.20;;
21424;SDS011;10873;51.132;16.848;2024-02-23T11:06:38;2.85;;;1.23;;
21424;SDS011;10873;51.132;16.848;2024-02-23T11:09:05;2.42;;;1.10;;
21424;SDS011;10873;51.132;16.848;2024-02-23T11:11:33;2.75;;;1.20;;
21424;SDS011;10873;51.132;16.848;2024-02-23T11:14:02;2.33;;;1.25;;
21424;SDS011;10873;51.132;16.848;2024-02-23T11:16:31;4.63;;;1.23;;
21424;SDS011;10873;51.132;16.848;2024-02-23T11:19:03;2.42;;;1.20;;
21424;SDS011;10873;51.132;16.848;2024-02-23T11:21:33;1.85;;;1.08;;
21424;SDS011;10873;51.132;16.848;2024-02-23T11:24:02;2.53;;;1.30;;
21424;SDS011;10873;51.132;16.848;2024-02-23T11:26:29;2.90;;;1.15;;
21424;SDS011;10873;51.132;16.848;2024-02-23T11:28:55;2.00;;;1.10;;
21424;SDS011;10873;51.132;16.848;2024-02-23T11:31:21;2.38;;;1.20;;
21424;SDS011;10873;51.132;16.848;2024-02-23T11:33:52;1.67;;;1.10;;
21424;SDS011;10873;51.132;16.848;2024-02-23T11:36:22;2.65;;;1.30;;
21424;SDS011;10873;51.132;16.848;2024-02-23T11:38:51;7.03;;;1.50;;
21424;SDS011;10873;51.132;16.848;2024-02-23T11:41:19;4.03;;;1.50;;
21424;SDS011;10873;51.132;16.848;2024-02-23T11:43:45;3.47;;;1.20;;
21424;SDS011;10873;51.132;16.848;2024-02-23T11:46:12;2.05;;;1.02;;
21424;SDS011;10873;51.132;16.848;2024-02-23T11:48:40;1.98;;;1.10;;
21424;SDS011;10873;51.132;16.848;2024-02-23T11:51:07;4.32;;;1.05;;
21424;SDS011;10873;51.132;16.848;2024-02-23T11:53:34;2.67;;;1.25;;
21424;SDS011;10873;51.132;16.848;2024-02-23T11:56:01;5.22;;;1.30;;
21424;SDS011;10873;51.132;16.848;2024-02-23T11:58:28;2.15;;;1.05;;
21424;SDS011;10873;51.132;16.848;2024-02-23T12:00:54;6.18;;;1.35;;
21424;SDS011;10873;51.132;16.848;2024-02-23T12:03:21;2.03;;;1.10;;
21424;SDS011;10873;51.132;16.848;2024-02-23T12:05:50;1.58;;;1.05;;
21424;SDS011;10873;51.132;16.848;2024-02-23T12:08:17;5.18;;;1.38;;
21424;SDS011;10873;51.132;16.848;2024-02-23T12:10:44;3.28;;;1.20;;
21424;SDS011;10873;51.132;16.848;2024-02-23T12:13:10;1.95;;;1.05;;
21424;SDS011;10873;51.132;16.848;2024-02-23T12:15:36;1.60;;;0.80;;
21424;SDS011;10873;51.132;16.848;2024-02-23T12:18:04;1.85;;;1.10;;
21424;SDS011;10873;51.132;16.848;2024-02-23T12:20:32;2.85;;;1.00;;
21424;SDS011;10873;51.132;16.848;2024-02-23T12:23:00;3.50;;;1.10;;
21424;SDS011;10873;51.132;16.848;2024-02-23T12:25:27;4.35;;;1.38;;
21424;SDS011;10873;51.132;16.848;2024-02-23T12:27:54;4.88;;;1.25;;
21424;SDS011;10873;51.132;16.848;2024-02-23T12:30:20;3.80;;;1.13;;
21424;SDS011;10873;51.132;16.848;2024-02-23T12:32:47;2.45;;;1.10;;
21424;SDS011;10873;51.132;16.848;2024-02-23T12:35:13;1.45;;;1.15;;
21424;SDS011;10873;51.132;16.848;2024-02-23T12:37:40;1.77;;;0.95;;
21424;SDS011;10873;51.132;16.848;2024-02-23T12:40:08;2.55;;;0.93;;
21424;SDS011;10873;51.132;16.848;2024-02-23T12:42:36;7.20;;;1.05;;
21424;SDS011;10873;51.132;16.848;2024-02-23T12:45:02;1.55;;;1.00;;
21424;SDS011;10873;51.132;16.848;2024-02-23T12:47:28;2.65;;;1.00;;
21424;SDS011;10873;51.132;16.848;2024-02-23T12:49:54;1.10;;;0.98;;
21424;SDS011;10873;51.132;16.848;2024-02-23T12:52:20;2.85;;;1.00;;
21424;SDS011;10873;51.132;16.848;2024-02-23T12:54:46;2.45;;;1.10;;
21424;SDS011;10873;51.132;16.848;2024-02-23T12:57:12;1.73;;;1.02;;
21424;SDS011;10873;51.132;16.848;2024-02-23T12:59:39;1.83;;;0.90;;
21424;SDS011;10873;51.132;16.848;2024-02-23T13:02:05;1.13;;;0.88;;
21424;SDS011;10873;51.132;16.848;2024-02-23T13:04:34;2.35;;;0.95;;
21424;SDS011;10873;51.132;16.848;2024-02-23T13:07:00;2.63;;;0.80;;
21424;SDS011;10873;51.132;16.848;2024-02-23T13:09:26;3.40;;;0.98;;
21424;SDS011;10873;51.132;16.848;2024-02-23T13:11:52;1.92;;;0.80;;
21424;SDS011;10873;51.132;16.848;2024-02-23T13:14:18;1.65;;;0.93;;
21424;SDS011;10873;51.132;16.848;2024-02-23T13:16:45;2.95;;;1.20;;
21424;SDS011;10873;51.132;16.848;2024-02-23T13:19:11;2.70;;;1.10;;
21424;SDS011;10873;51.132;16.848;2024-02-23T13:21:37;1.92;;;0.82;;
21424;SDS011;10873;51.132;16.848;2024-02-23T13:24:04;4.30;;;1.05;;
21424;SDS011;10873;51.132;16.848;2024-02-23T13:26:31;1.52;;;0.90;;
21424;SDS011;10873;51.132;16.848;2024-02-23T13:28:58;2.58;;;1.00;;
21424;SDS011;10873;51.132;16.848;2024-02-23T13:31:24;2.83;;;1.20;;
21424;SDS011;10873;51.132;16.848;2024-02-23T13:33:50;3.85;;;1.48;;
21424;SDS011;10873;51.132;16.848;2024-02-23T13:36:17;1.90;;;1.20;;
21424;SDS011;10873;51.132;16.848;2024-02-23T13:38:43;7.38;;;1.50;;
21424;SDS011;10873;51.132;16.848;2024-02-23T13:41:09;2.90;;;1.60;;
21424;SDS011;10873;51.132;16.848;2024-02-23T13:43:35;2.58;;;1.48;;
21424;SDS011;10873;51.132;16.848;2024-02-23T13:46:01;2.47;;;1.50;;
21424;SDS011;10873;51.132;16.848;2024-02-23T13:48:29;3.00;;;1.30;;
21424;SDS011;10873;51.132;16.848;2024-02-23T13:50:56;3.45;;;1.80;;
21424;SDS011;10873;51.132;16.848;2024-02-23T13:53:23;2.78;;;1.63;;
21424;SDS011;10873;51.132;16.848;2024-02-23T13:55:49;2.08;;;1.67;;
21424;SDS011;10873;51.132;16.848;2024-02-23T13:58:15;5.75;;;1.80;;
21424;SDS011;10873;51.132;16.848;2024-02-23T14:00:42;3.92;;;1.60;;
21424;SDS011;10873;51.132;16.848;2024-02-23T14:03:08;3.47;;;1.77;;
21424;SDS011;10873;51.132;16.848;2024-02-23T14:05:41;5.65;;;1.40;;
21424;SDS011;10873;51.132;16.848;2024-02-23T14:08:10;2.28;;;1.50;;
21424;SDS011;10873;51.132;16.848;2024-02-23T14:10:36;3.15;;;1.25;;
21424;SDS011;10873;51.132;16.848;2024-02-23T14:13:03;2.90;;;1.50;;
21424;SDS011;10873;51.132;16.848;2024-02-23T14:15:29;4.32;;;1.52;;
21424;SDS011;10873;51.132;16.848;2024-02-23T14:17:55;4.15;;;1.45;;
21424;SDS011;10873;51.132;16.848;2024-02-23T14:20:21;2.75;;;1.30;;
21424;SDS011;10873;51.132;16.848;2024-02-23T14:22:47;1.48;;;1.02;;
21424;SDS011;10873;51.132;16.848;2024-02-23T14:25:16;4.63;;;1.35;;
21424;SDS011;10873;51.132;16.848;2024-02-23T14:27:42;3.10;;;1.25;;
21424;SDS011;10873;51.132;16.848;2024-02-23T14:30:09;2.30;;;1.30;;